createdAt,value
2023-03-26T00:02:04.797Z,8.70
2023-03-26T00:04:34.476Z,8.60
2023-03-26T00:07:02.910Z,8.60
2023-03-26T00:09:32.227Z,8.60
2023-03-26T00:12:00.332Z,8.70
2023-03-26T00:14:29.894Z,8.60
2023-03-26T00:16:58.067Z,8.60
2023-03-26T00:19:27.765Z,8.50
2023-03-26T00:21:57.604Z,8.60
2023-03-26T00:24:29.857Z,8.50
2023-03-26T00:26:59.641Z,8.50
2023-03-26T00:29:27.904Z,8.40
2023-03-26T00:31:55.885Z,8.40
2023-03-26T00:34:24.868Z,8.40
2023-03-26T00:36:54.679Z,8.40
2023-03-26T00:39:24.035Z,8.40
2023-03-26T00:41:54.542Z,8.40
2023-03-26T00:44:24.294Z,8.50
2023-03-26T00:46:52.618Z,8.50
2023-03-26T00:49:26.656Z,8.40
2023-03-26T00:51:54.671Z,8.60
2023-03-26T00:54:22.787Z,8.60
2023-03-26T00:56:50.922Z,8.60
2023-03-26T00:59:18.941Z,8.50
2023-03-26T01:01:48.473Z,8.50
2023-03-26T01:04:27.518Z,8.60
2023-03-26T01:06:59.062Z,8.50
2023-03-26T01:09:34.344Z,8.50
2023-03-26T01:12:03.960Z,8.50
2023-03-26T01:14:32.131Z,8.40
2023-03-26T01:17:03.375Z,8.50
2023-03-26T01:19:38.205Z,8.40
2023-03-26T01:22:09.551Z,8.40
2023-03-26T01:24:39.364Z,8.30
2023-03-26T01:27:28.896Z,8.30
2023-03-26T01:30:03.812Z,8.20
2023-03-26T01:32:52.643Z,8.20
2023-03-26T01:35:40.195Z,8.20
2023-03-26T01:38:18.500Z,8.10
2023-03-26T01:40:51.386Z,8.10
2023-03-26T01:43:26.920Z,8.10
2023-03-26T01:45:55.761Z,8.00
2023-03-26T01:48:32.249Z,8.00
2023-03-26T01:51:00.281Z,8.00
2023-03-26T01:53:28.510Z,7.90
2023-03-26T01:56:10.876Z,7.90
2023-03-26T01:58:51.594Z,7.70
2023-03-26T02:01:29.458Z,7.60
2023-03-26T02:04:07.425Z,7.60
2023-03-26T02:06:42.601Z,7.60
2023-03-26T02:09:14.736Z,7.70
2023-03-26T02:11:45.553Z,7.60
2023-03-26T02:14:15.901Z,7.50
2023-03-26T02:16:46.990Z,7.40
2023-03-26T02:19:21.628Z,7.50
2023-03-26T02:21:51.909Z,7.50
2023-03-26T02:24:21.827Z,7.50
2023-03-26T02:26:55.942Z,7.40
2023-03-26T02:29:24.213Z,7.40
2023-03-26T02:31:52.448Z,7.50
2023-03-26T02:34:20.419Z,7.50
2023-03-26T02:36:53.699Z,7.40
2023-03-26T02:39:22.004Z,7.50
2023-03-26T02:41:57.898Z,7.50
2023-03-26T02:44:27.181Z,7.50
2023-03-26T02:47:01.291Z,7.60
2023-03-26T02:50:04.530Z,7.60
2023-03-26T02:52:53.393Z,7.50
2023-03-26T02:55:21.446Z,7.60
2023-03-26T02:57:52.136Z,7.60
2023-03-26T03:00:22.786Z,7.70
2023-03-26T03:02:52.726Z,7.60
2023-03-26T03:05:53.773Z,7.60
2023-03-26T03:08:35.619Z,7.70
2023-03-26T03:11:10.912Z,7.70
2023-03-26T03:13:48.479Z,7.80
2023-03-26T03:16:23.085Z,7.80
2023-03-26T03:18:57.813Z,7.80
2023-03-26T03:21:34.416Z,7.80
2023-03-26T03:24:04.876Z,7.80
2023-03-26T03:26:37.583Z,7.90
2023-03-26T03:29:18.301Z,7.90
2023-03-26T03:31:46.444Z,7.90
2023-03-26T03:34:28.536Z,7.90
2023-03-26T03:36:56.826Z,7.90
2023-03-26T03:39:41.732Z,7.90
2023-03-26T03:42:10.426Z,8.00
2023-03-26T03:44:40.720Z,8.00
2023-03-26T03:47:18.979Z,8.10
2023-03-26T03:49:48.653Z,8.10
2023-03-26T03:52:18.198Z,8.00
2023-03-26T03:54:46.536Z,8.00
2023-03-26T03:57:23.787Z,8.00
2023-03-26T04:00:03.138Z,8.00
2023-03-26T04:02:46.281Z,8.10
2023-03-26T04:05:15.327Z,8.10
2023-03-26T04:07:47.809Z,8.00
2023-03-26T04:10:35.752Z,8.00
2023-03-26T04:13:22.027Z,7.90
2023-03-26T04:15:57.668Z,7.80
2023-03-26T04:18:26.520Z,7.90
2023-03-26T04:20:55.735Z,7.80
2023-03-26T04:23:29.200Z,7.80
2023-03-26T04:26:10.365Z,7.80
2023-03-26T04:29:07.250Z,7.70
2023-03-26T04:31:38.348Z,7.70
2023-03-26T04:34:13.489Z,7.80
2023-03-26T04:36:54.433Z,7.70
2023-03-26T04:39:29.021Z,7.60
2023-03-26T04:42:15.372Z,7.60
2023-03-26T04:44:56.230Z,7.50
2023-03-26T04:47:25.680Z,7.50
2023-03-26T04:49:53.838Z,7.40
2023-03-26T04:52:21.856Z,7.40
2023-03-26T04:55:20.539Z,7.40
2023-03-26T04:57:56.837Z,7.40
2023-03-26T05:00:47.450Z,7.40
2023-03-26T05:03:16.895Z,7.40
2023-03-26T05:05:45.144Z,7.50
2023-03-26T05:08:13.544Z,7.50
2023-03-26T05:10:41.562Z,7.40
2023-03-26T05:13:21.984Z,7.40
2023-03-26T05:15:53.340Z,7.50
2023-03-26T05:18:33.471Z,7.50
2023-03-26T05:21:02.487Z,7.50
2023-03-26T05:23:31.501Z,7.50
2023-03-26T05:26:31.656Z,7.50
2023-03-26T05:29:00.236Z,7.50
2023-03-26T05:31:34.047Z,7.50
2023-03-26T05:34:04.640Z,7.50
2023-03-26T05:36:32.861Z,7.50
2023-03-26T05:39:29.843Z,7.60
2023-03-26T05:42:07.778Z,7.60
2023-03-26T05:44:51.209Z,7.60
2023-03-26T05:47:25.926Z,7.60
2023-03-26T05:49:55.314Z,7.70
2023-03-26T05:52:23.324Z,7.80
2023-03-26T05:55:10.527Z,7.80
2023-03-26T05:57:57.153Z,7.70
2023-03-26T06:00:48.802Z,7.80
2023-03-26T06:03:26.952Z,7.90
2023-03-26T06:06:15.370Z,7.90
2023-03-26T06:09:01.561Z,7.90
2023-03-26T06:11:32.440Z,8.00
2023-03-26T06:14:02.236Z,8.00
2023-03-26T06:16:30.575Z,8.00
2023-03-26T06:19:10.782Z,8.00
2023-03-26T06:22:02.261Z,8.00
2023-03-26T06:24:34.810Z,8.00
2023-03-26T06:27:38.894Z,8.00
2023-03-26T06:30:45.808Z,8.00
2023-03-26T06:33:24.402Z,7.90
2023-03-26T06:35:52.912Z,7.90
2023-03-26T06:41:15.005Z,8.00
2023-03-26T06:44:30.504Z,8.00
2023-03-26T06:47:36.272Z,7.90
2023-03-26T06:58:12.790Z,7.90
2023-03-26T07:01:02.161Z,7.90
2023-03-26T07:03:48.614Z,7.90
2023-03-26T07:06:35.371Z,7.90
2023-03-26T07:09:21.941Z,7.80
2023-03-26T07:12:08.818Z,7.80
2023-03-26T07:14:55.320Z,7.90
2023-03-26T07:17:42.150Z,8.00
2023-03-26T07:20:21.476Z,7.90
2023-03-26T07:22:50.469Z,8.00
2023-03-26T07:25:35.622Z,8.00
2023-03-26T07:28:19.424Z,8.00
2023-03-26T07:31:28.069Z,8.00
2023-03-26T07:34:39.104Z,8.00
2023-03-26T07:37:31.458Z,8.10
2023-03-26T07:40:36.182Z,8.10
2023-03-26T07:43:38.920Z,8.00
2023-03-26T07:46:13.349Z,8.10
2023-03-26T07:48:54.933Z,8.00
2023-03-26T07:51:45.884Z,8.00
2023-03-26T07:54:37.047Z,8.00
2023-03-26T07:57:36.775Z,8.00
2023-03-26T08:00:45.784Z,7.90
2023-03-26T08:03:36.848Z,8.00
2023-03-26T08:06:14.572Z,8.00
2023-03-26T08:09:01.185Z,8.10
2023-03-26T08:11:55.367Z,8.00
2023-03-26T08:14:34.681Z,8.00
2023-03-26T08:17:09.011Z,8.00
2023-03-26T08:19:57.941Z,8.00
2023-03-26T08:22:30.523Z,8.00
2023-03-26T08:25:17.706Z,8.00
2023-03-26T08:27:52.965Z,8.00
2023-03-26T08:30:24.091Z,8.10
2023-03-26T08:32:57.650Z,8.00
2023-03-26T08:35:26.931Z,8.00
2023-03-26T08:37:55.274Z,8.10
2023-03-26T08:40:46.192Z,8.00
2023-03-26T08:43:48.689Z,8.10
2023-03-26T08:46:33.522Z,8.00
2023-03-26T08:49:13.679Z,8.00
2023-03-26T08:52:22.978Z,8.10
2023-03-26T08:55:13.605Z,8.10
2023-03-26T08:58:20.558Z,8.10
2023-03-26T09:01:22.208Z,8.10
2023-03-26T09:04:20.359Z,8.10
2023-03-26T09:07:11.492Z,8.20
2023-03-26T09:10:22.348Z,8.20
2023-03-26T09:13:20.946Z,8.20
2023-03-26T09:16:26.321Z,8.20
2023-03-26T09:19:24.075Z,8.30
2023-03-26T09:22:21.577Z,8.20
2023-03-26T09:25:19.709Z,8.10
2023-03-26T09:28:07.789Z,8.10
2023-03-26T09:31:17.806Z,8.00
2023-03-26T09:34:00.503Z,8.00
2023-03-26T09:36:53.960Z,7.90
2023-03-26T09:39:35.806Z,7.90
2023-03-26T09:42:11.778Z,7.90
2023-03-26T09:45:06.136Z,7.90
2023-03-26T09:48:02.671Z,8.00
2023-03-26T09:50:38.194Z,8.00
2023-03-26T09:53:23.451Z,8.00
2023-03-26T09:56:01.258Z,7.90
2023-03-26T09:58:57.950Z,7.80
2023-03-26T10:01:33.256Z,7.70
2023-03-26T10:04:23.799Z,7.70
2023-03-26T10:07:02.050Z,7.70
2023-03-26T10:09:48.347Z,7.50
2023-03-26T10:12:25.524Z,7.60
2023-03-26T10:15:08.588Z,7.60
2023-03-26T10:17:47.371Z,7.60
2023-03-26T10:20:44.529Z,7.60
2023-03-26T10:23:46.990Z,7.60
2023-03-26T10:26:38.363Z,7.50
2023-03-26T10:29:43.109Z,7.60
2023-03-26T10:32:27.267Z,7.60
2023-03-26T10:35:05.526Z,7.60
2023-03-26T10:37:45.675Z,7.50
2023-03-26T10:40:23.564Z,7.60
2023-03-26T10:43:31.291Z,7.70
2023-03-26T10:46:32.774Z,7.80
2023-03-26T10:49:29.724Z,7.90
2023-03-26T10:52:00.051Z,7.90
2023-03-26T10:54:40.030Z,8.00
2023-03-26T10:57:16.644Z,8.00
2023-03-26T10:59:44.646Z,8.00
2023-03-26T11:02:29.467Z,8.00
2023-03-26T11:05:19.096Z,8.00
2023-03-26T11:07:53.844Z,8.20
2023-03-26T11:10:32.533Z,8.20
2023-03-26T11:13:12.076Z,8.30
2023-03-26T11:15:45.764Z,8.40
2023-03-26T11:18:19.368Z,8.50
2023-03-26T11:20:52.291Z,8.40
2023-03-26T11:23:34.394Z,8.50
2023-03-26T11:26:10.493Z,8.60
2023-03-26T11:29:31.869Z,8.80
2023-03-26T11:32:06.689Z,8.80
2023-03-26T11:34:38.514Z,8.90
2023-03-26T11:37:13.401Z,8.90
2023-03-26T11:39:47.814Z,8.90
2023-03-26T11:42:18.413Z,9.00
2023-03-26T11:44:54.132Z,9.00
2023-03-26T11:47:25.844Z,8.80
2023-03-26T11:49:56.745Z,8.80
2023-03-26T11:52:25.320Z,9.00
2023-03-26T11:54:54.093Z,9.20
2023-03-26T11:57:26.247Z,9.20
2023-03-26T12:00:03.527Z,9.20
2023-03-26T12:02:42.093Z,9.20
2023-03-26T12:05:17.907Z,9.10
2023-03-26T12:07:48.363Z,9.10
2023-03-26T12:10:31.977Z,9.00
2023-03-26T12:13:03.084Z,8.70
2023-03-26T12:15:32.991Z,8.70
2023-03-26T12:18:18.552Z,8.70
2023-03-26T12:20:46.659Z,8.70
2023-03-26T12:23:44.313Z,8.80
2023-03-26T12:26:30.265Z,8.70
2023-03-26T12:28:58.439Z,8.60
2023-03-26T12:31:30.558Z,8.80
2023-03-26T12:34:14.041Z,8.80
2023-03-26T12:36:50.424Z,8.90
2023-03-26T12:40:08.890Z,9.00
2023-03-26T12:44:51.384Z,9.00
2023-03-26T12:45:21.878Z,9.20
2023-03-26T12:48:00.251Z,9.30
2023-03-26T12:50:45.600Z,9.30
2023-03-26T12:53:37.489Z,9.50
2023-03-26T12:56:17.427Z,9.70
2023-03-26T12:59:07.758Z,10.00
2023-03-26T13:01:50.371Z,10.10
2023-03-26T13:04:37.478Z,10.00
2023-03-26T13:07:13.784Z,10.00
2023-03-26T13:10:23.472Z,10.10
2023-03-26T13:13:05.051Z,9.80
2023-03-26T13:15:36.505Z,9.90
2023-03-26T13:18:18.108Z,9.90
2023-03-26T13:20:59.919Z,9.90
2023-03-26T13:23:42.604Z,10.00
2023-03-26T13:26:19.209Z,10.20
2023-03-26T13:28:55.524Z,10.30
2023-03-26T13:31:29.099Z,10.40
2023-03-26T13:34:05.063Z,10.20
2023-03-26T13:36:46.577Z,10.30
2023-03-26T13:39:26.163Z,10.40
2023-03-26T13:42:18.818Z,10.40
2023-03-26T13:45:04.568Z,10.50
2023-03-26T13:47:37.126Z,10.60
2023-03-26T13:50:09.857Z,10.90
2023-03-26T13:52:45.042Z,11.00
2023-03-26T13:55:23.316Z,10.90
2023-03-26T13:57:59.123Z,10.60
2023-03-26T14:00:32.642Z,10.60
2023-03-26T14:03:05.596Z,10.70
2023-03-26T14:05:40.334Z,10.70
2023-03-26T14:08:18.220Z,10.60
2023-03-26T14:10:50.416Z,10.70
2023-03-26T14:13:22.479Z,10.80
2023-03-26T14:15:55.082Z,10.50
2023-03-26T14:18:36.896Z,10.30
2023-03-26T14:21:37.190Z,10.10
2023-03-26T14:24:36.350Z,10.10
2023-03-26T14:27:25.738Z,10.20
2023-03-26T14:30:14.340Z,10.20
2023-03-26T14:32:55.165Z,10.30
2023-03-26T14:35:37.761Z,10.40
2023-03-26T14:38:41.687Z,10.40
2023-03-26T14:41:25.424Z,10.40
2023-03-26T14:44:22.218Z,10.50
2023-03-26T14:47:15.879Z,10.40
2023-03-26T14:50:08.352Z,10.30
2023-03-26T14:52:46.116Z,10.20
2023-03-26T14:55:19.863Z,10.10
2023-03-26T14:58:23.073Z,10.00
2023-03-26T15:01:21.705Z,9.90
2023-03-26T15:04:25.605Z,9.90
2023-03-26T15:07:27.166Z,9.80
2023-03-26T15:10:23.697Z,9.80
2023-03-26T15:13:36.428Z,9.80
2023-03-26T15:16:31.949Z,9.80
2023-03-26T15:19:36.791Z,9.90
2023-03-26T15:22:45.271Z,9.90
2023-03-26T15:25:41.835Z,9.90
2023-03-26T15:28:51.292Z,10.00
2023-03-26T15:31:43.222Z,10.00
2023-03-26T15:34:43.331Z,10.00
2023-03-26T15:37:47.328Z,9.90
2023-03-26T15:40:46.091Z,9.90
2023-03-26T15:43:18.242Z,9.80
2023-03-26T15:45:50.869Z,9.90
2023-03-26T15:48:47.169Z,9.90
2023-03-26T15:51:29.006Z,9.80
2023-03-26T15:54:01.479Z,9.70
2023-03-26T15:56:54.663Z,9.60
2023-03-26T15:59:37.236Z,9.40
2023-03-26T16:02:17.560Z,9.30
2023-03-26T16:04:54.024Z,9.20
2023-03-26T16:07:38.947Z,9.10
2023-03-26T16:10:28.105Z,9.10
2023-03-26T16:13:24.641Z,8.90
2023-03-26T16:15:58.000Z,9.00
2023-03-26T16:18:35.820Z,9.00
2023-03-26T16:21:37.387Z,8.90
2023-03-26T16:24:29.005Z,8.90
2023-03-26T16:27:26.476Z,8.70
2023-03-26T16:30:15.285Z,8.70
2023-03-26T16:32:47.959Z,8.70
2023-03-26T16:35:49.579Z,8.80
2023-03-26T16:38:34.238Z,8.80
2023-03-26T16:41:16.277Z,8.70
2023-03-26T16:44:11.048Z,8.70
2023-03-26T16:46:49.015Z,8.70
2023-03-26T16:49:36.302Z,8.70
2023-03-26T16:52:23.198Z,8.60
2023-03-26T16:54:56.355Z,8.70
2023-03-26T16:57:30.366Z,8.60
2023-03-26T17:00:25.515Z,8.60
2023-03-26T17:03:03.631Z,8.50
2023-03-26T17:05:37.312Z,8.50
2023-03-26T17:08:14.413Z,8.50
2023-03-26T17:10:48.337Z,8.40
2023-03-26T17:13:24.094Z,8.40
2023-03-26T17:16:02.220Z,8.40
2023-03-26T17:19:07.663Z,8.40
2023-03-26T17:21:47.298Z,8.40
2023-03-26T17:24:37.530Z,8.40
2023-03-26T17:27:34.633Z,8.30
2023-03-26T17:30:55.985Z,8.30
2023-03-26T17:33:44.989Z,8.30
2023-03-26T17:36:21.949Z,8.30
2023-03-26T17:39:53.575Z,8.20
2023-03-26T17:42:29.046Z,8.20
2023-03-26T17:45:16.723Z,8.10
2023-03-26T17:48:03.966Z,8.10
2023-03-26T17:50:51.572Z,8.00
2023-03-26T17:53:22.538Z,8.00
2023-03-26T17:56:06.402Z,8.00
2023-03-26T17:58:53.112Z,8.00
2023-03-26T18:02:10.002Z,8.00
2023-03-26T18:08:10.994Z,7.90
2023-03-26T18:15:08.222Z,7.70
2023-03-26T18:17:42.596Z,7.70
2023-03-26T18:20:21.685Z,7.70
2023-03-26T18:22:50.496Z,7.60
2023-03-26T18:25:27.593Z,7.50
2023-03-26T18:27:57.346Z,7.60
2023-03-26T18:30:26.279Z,7.50
2023-03-26T18:33:01.160Z,7.50
2023-03-26T18:35:46.096Z,7.50
2023-03-26T18:38:35.010Z,7.40
2023-03-26T18:41:15.778Z,7.40
2023-03-26T18:43:44.739Z,7.40
2023-03-26T18:46:14.237Z,7.40
2023-03-26T18:48:42.719Z,7.30
2023-03-26T18:51:12.241Z,7.40
2023-03-26T18:53:45.880Z,7.30
2023-03-26T18:56:28.382Z,7.30
2023-03-26T18:58:58.777Z,7.30
2023-03-26T19:01:31.433Z,7.20
2023-03-26T19:04:03.665Z,7.20
2023-03-26T19:06:38.237Z,7.20
2023-03-26T19:09:23.887Z,7.20
2023-03-26T19:11:58.053Z,7.20
2023-03-26T19:14:28.469Z,7.20
2023-03-26T19:17:00.562Z,7.20
2023-03-26T19:19:33.540Z,7.10
2023-03-26T19:22:03.595Z,7.10
2023-03-26T19:24:31.797Z,7.10
2023-03-26T19:27:00.478Z,7.10
2023-03-26T19:29:32.115Z,7.00
2023-03-26T19:32:04.363Z,7.00
2023-03-26T19:34:34.802Z,7.00
2023-03-26T19:37:17.177Z,7.00
2023-03-26T19:39:47.720Z,7.00
2023-03-26T19:42:19.151Z,7.00
2023-03-26T19:44:47.375Z,6.90
2023-03-26T19:47:18.990Z,6.90
2023-03-26T19:49:55.930Z,6.90
2023-03-26T19:52:27.742Z,6.90
2023-03-26T19:55:01.319Z,6.90
2023-03-26T19:57:31.375Z,6.80
2023-03-26T19:59:59.699Z,6.80
2023-03-26T20:02:28.487Z,6.70
2023-03-26T20:04:56.588Z,6.70
2023-03-26T20:07:35.872Z,6.70
2023-03-26T20:10:06.413Z,6.70
2023-03-26T20:12:34.422Z,6.70
2023-03-26T20:15:02.918Z,6.70
2023-03-26T20:17:34.743Z,6.70
2023-03-26T20:20:05.665Z,6.60
2023-03-26T20:22:35.019Z,6.60
2023-03-26T20:25:03.272Z,6.60
2023-03-26T20:27:31.300Z,6.50
2023-03-26T20:29:59.291Z,6.50
2023-03-26T20:32:27.495Z,6.50
2023-03-26T20:34:57.601Z,6.50
2023-03-26T20:37:25.689Z,6.40
2023-03-26T20:39:55.134Z,6.40
2023-03-26T20:42:23.216Z,6.40
2023-03-26T20:44:51.190Z,6.40
2023-03-26T20:47:19.157Z,6.40
2023-03-26T20:49:47.173Z,6.30
2023-03-26T20:52:15.397Z,6.30
2023-03-26T20:54:43.591Z,6.30
2023-03-26T20:57:13.341Z,6.30
2023-03-26T20:59:41.927Z,6.30
2023-03-26T21:02:12.657Z,6.30
2023-03-26T21:04:41.424Z,6.20
2023-03-26T21:07:17.809Z,6.20
2023-03-26T21:09:47.287Z,6.20
2023-03-26T21:12:26.146Z,6.10
2023-03-26T21:14:55.781Z,6.10
2023-03-26T21:17:24.908Z,6.10
2023-03-26T21:19:53.489Z,6.10
2023-03-26T21:22:32.673Z,6.00
2023-03-26T21:25:11.692Z,6.00
2023-03-26T21:27:51.522Z,6.00
2023-03-26T21:30:20.221Z,5.90
2023-03-26T21:32:49.074Z,5.90
2023-03-26T21:35:18.164Z,5.90
2023-03-26T21:37:48.515Z,5.80
2023-03-26T21:40:18.171Z,5.80
2023-03-26T21:42:49.681Z,5.80
2023-03-26T21:45:18.869Z,5.70
2023-03-26T21:47:47.727Z,5.70
2023-03-26T21:50:18.293Z,5.60
2023-03-26T21:52:49.774Z,5.60
2023-03-26T21:55:19.139Z,5.50
2023-03-26T21:58:23.688Z,5.30
2023-03-26T22:01:03.954Z,5.20
2023-03-26T22:03:38.486Z,5.10
2023-03-26T22:06:12.330Z,5.00
2023-03-26T22:08:42.004Z,4.90
2023-03-26T22:11:12.141Z,4.80
2023-03-26T22:13:42.142Z,4.70
2023-03-26T22:16:11.733Z,4.60
2023-03-26T22:18:39.818Z,4.60
2023-03-26T22:21:08.078Z,4.50
2023-03-26T22:23:36.532Z,4.40
2023-03-26T22:26:05.830Z,4.40
2023-03-26T22:28:33.971Z,4.30
2023-03-26T22:31:09.004Z,4.20
2023-03-26T22:33:39.998Z,4.20
2023-03-26T22:36:22.932Z,4.20
2023-03-26T22:38:54.341Z,4.10
2023-03-26T22:41:23.261Z,4.00
2023-03-26T22:43:52.703Z,4.00
2023-03-26T22:46:23.530Z,4.00
2023-03-26T22:48:51.833Z,4.10
2023-03-26T22:51:20.439Z,4.00
2023-03-26T22:53:48.602Z,4.00
2023-03-26T22:56:17.166Z,4.00
2023-03-26T22:58:45.407Z,4.00
2023-03-26T23:01:16.781Z,3.90
2023-03-26T23:03:46.569Z,3.90
2023-03-26T23:06:15.312Z,3.90
2023-03-26T23:08:43.399Z,3.90
2023-03-26T23:11:15.312Z,3.90
2023-03-26T23:13:43.767Z,3.90
2023-03-26T23:16:13.169Z,4.00
2023-03-26T23:18:42.140Z,4.00
2023-03-26T23:21:16.503Z,4.00
2023-03-26T23:23:44.726Z,4.10
2023-03-26T23:26:13.522Z,4.10
2023-03-26T23:28:41.906Z,4.10
2023-03-26T23:31:12.206Z,4.10
2023-03-26T23:33:45.680Z,4.10
2023-03-26T23:36:18.155Z,4.00
2023-03-26T23:38:47.882Z,4.00
2023-03-26T23:41:17.256Z,4.00
2023-03-26T23:43:54.878Z,4.00
2023-03-26T23:46:24.889Z,4.00
2023-03-26T23:48:53.475Z,3.90
2023-03-26T23:51:23.992Z,3.90
2023-03-26T23:53:52.742Z,3.90
2023-03-26T23:56:21.001Z,3.80
2023-03-26T23:58:49.559Z,3.80
